Wetterdaten: aktuell Donnerstag, 07.05.2026 08:25
Datum Zeit Temp. A. Feuchte A. Luftdruck Regen Wind Richtung Richtung Taupunkt Windchill
07.05.2026 08:25 11,0 °C 75 % 1005,4 hPa 0,0 l/m² 0,5 km/h (0 Bft) N 355 ° 6,7 °C 11,0 °C
07.05.2026 08:23 11,0 °C 75 % 1005,4 hPa 0,0 l/m² 0,5 km/h (0 Bft) N 355 ° 6,7 °C 11,0 °C
07.05.2026 08:21 11,0 °C 76 % 1005,4 hPa 0,0 l/m² 0,0 km/h (0 Bft) N 355 ° 6,9 °C 11,0 °C
07.05.2026 08:19 11,0 °C 76 % 1005,4 hPa 0,0 l/m² 0,0 km/h (0 Bft) N 355 ° 6,9 °C 11,0 °C
07.05.2026 08:17 11,0 °C 76 % 1005,4 hPa 0,0 l/m² 0,2 km/h (0 Bft) N 355 ° 6,9 °C 11,0 °C
07.05.2026 08:15 10,9 °C 76 % 1005,4 hPa 0,0 l/m² 0,2 km/h (0 Bft) N 355 ° 6,8 °C 10,9 °C
07.05.2026 08:13 10,9 °C 76 % 1005,4 hPa 0,0 l/m² 5,6 km/h (1 Bft) N 355 ° 6,8 °C 10,9 °C
07.05.2026 08:11 10,9 °C 76 % 1005,4 hPa 0,0 l/m² 7,8 km/h (2 Bft) N-NW±22.5° 335 ° 6,8 °C 9,9 °C
07.05.2026 08:08 10,9 °C 76 % 1005,4 hPa 0,0 l/m² 7,8 km/h (2 Bft) N-NW±22.5° 335 ° 6,8 °C 9,9 °C
07.05.2026 08:06 10,9 °C 76 % 1005,4 hPa 0,0 l/m² 5,2 km/h (1 Bft) NW±45° 315 ° 6,8 °C 10,9 °C
07.05.2026 08:05 10,9 °C 76 % 1005,4 hPa 0,0 l/m² 0,6 km/h (0 Bft) NW±22.5° 305 ° 6,8 °C 10,9 °C
07.05.2026 08:03 10,9 °C 76 % 1005,4 hPa 0,0 l/m² 0,6 km/h (0 Bft) NW±22.5° 305 ° 6,8 °C 10,9 °C
07.05.2026 08:01 10,9 °C 76 % 1005,4 hPa 0,0 l/m² 0,6 km/h (0 Bft) NW±22.5° 305 ° 6,8 °C 10,9 °C
07.05.2026 07:59 10,9 °C 77 % 1005,4 hPa 0,0 l/m² 1,0 km/h (0 Bft) NW 305 ° 7,0 °C 10,9 °C
07.05.2026 07:57 10,9 °C 77 % 1005,4 hPa 0,0 l/m² 1,2 km/h (1 Bft) N-NW±22.5° 340 ° 7,0 °C 10,9 °C
07.05.2026 07:55 10,9 °C 77 % 1005,4 hPa 0,0 l/m² 0,3 km/h (0 Bft) N-NW 340 ° 7,0 °C 10,9 °C
07.05.2026 07:53 10,9 °C 77 % 1005,4 hPa 0,0 l/m² 0,3 km/h (0 Bft) N-NW 340 ° 7,0 °C 10,9 °C
07.05.2026 07:51 10,9 °C 77 % 1005,4 hPa 0,0 l/m² 4,6 km/h (1 Bft) N-NW 340 ° 7,0 °C 10,9 °C
07.05.2026 07:49 10,9 °C 78 % 1005,4 hPa 0,0 l/m² 4,6 km/h (1 Bft) N-NW 340 ° 7,2 °C 10,9 °C
07.05.2026 07:47 10,9 °C 79 % 1005,4 hPa 0,0 l/m² 4,6 km/h (1 Bft) N-NW 340 ° 7,4 °C 10,9 °C
07.05.2026 07:45 10,9 °C 79 % 1005,4 hPa 0,0 l/m² 0,0 km/h (0 Bft) N-NW 340 ° 7,4 °C 10,9 °C
07.05.2026 07:43 10,9 °C 79 % 1005,4 hPa 0,0 l/m² 0,3 km/h (0 Bft) N-NW 340 ° 7,4 °C 10,9 °C
07.05.2026 07:41 10,9 °C 79 % 1005,4 hPa 0,0 l/m² 0,0 km/h (0 Bft) N-NW 340 ° 7,4 °C 10,9 °C
07.05.2026 07:39 10,9 °C 79 % 1005,4 hPa 0,0 l/m² 0,0 km/h (0 Bft) N-NW 340 ° 7,4 °C 10,9 °C
07.05.2026 07:37 10,9 °C 78 % 1005,4 hPa 0,0 l/m² 0,0 km/h (0 Bft) N-NW 340 ° 7,2 °C 10,9 °C
07.05.2026 07:35 10,9 °C 78 % 1005,4 hPa 0,0 l/m² 0,0 km/h (0 Bft) N-NW 340 ° 7,2 °C 10,9 °C
07.05.2026 07:33 10,9 °C 78 % 1004,4 hPa 0,0 l/m² 0,0 km/h (0 Bft) N-NW 340 ° 7,2 °C 10,9 °C
07.05.2026 07:31 10,9 °C 78 % 1004,4 hPa 0,0 l/m² 0,0 km/h (0 Bft) N-NW 340 ° 7,2 °C 10,9 °C
07.05.2026 07:28 10,9 °C 79 % 1004,4 hPa 0,0 l/m² 0,1 km/h (0 Bft) N-NW 330 ° 7,4 °C 10,9 °C
07.05.2026 07:26 10,9 °C 79 % 1004,4 hPa 0,0 l/m² 5,8 km/h (2 Bft) NW±22.5° 325 ° 7,4 °C 10,9 °C
07.05.2026 07:25 10,9 °C 79 % 1004,4 hPa 0,0 l/m² 5,8 km/h (2 Bft) NW±22.5° 325 ° 7,4 °C 10,9 °C
07.05.2026 07:23 10,9 °C 80 % 1004,4 hPa 0,0 l/m² 4,0 km/h (1 Bft) N-NW 335 ° 7,6 °C 10,9 °C
07.05.2026 07:21 10,9 °C 80 % 1004,4 hPa 0,0 l/m² 5,1 km/h (1 Bft) N-NW 330 ° 7,6 °C 10,9 °C
07.05.2026 07:19 10,9 °C 80 % 1004,4 hPa 0,0 l/m² 0,0 km/h (0 Bft) NW 325 ° 7,6 °C 10,9 °C
07.05.2026 07:17 10,8 °C 80 % 1004,4 hPa 0,0 l/m² 0,0 km/h (0 Bft) NW 325 ° 7,5 °C 10,8 °C
07.05.2026 07:15 10,8 °C 80 % 1004,4 hPa 0,0 l/m² 0,4 km/h (0 Bft) NW 325 ° 7,5 °C 10,8 °C
07.05.2026 07:13 10,8 °C 81 % 1004,4 hPa 0,0 l/m² 0,1 km/h (0 Bft) NW 325 ° 7,7 °C 10,8 °C
07.05.2026 07:11 10,9 °C 82 % 1004,4 hPa 0,0 l/m² 0,1 km/h (0 Bft) NW 325 ° 7,9 °C 10,9 °C
07.05.2026 07:09 10,9 °C 82 % 1004,4 hPa 0,0 l/m² 0,1 km/h (0 Bft) NW 320 ° 7,9 °C 10,9 °C
07.05.2026 07:07 10,8 °C 83 % 1004,4 hPa 0,0 l/m² 0,3 km/h (0 Bft) NW 315 ° 8,0 °C 10,8 °C
07.05.2026 07:05 10,8 °C 83 % 1004,4 hPa 0,0 l/m² 0,9 km/h (0 Bft) NW 315 ° 8,0 °C 10,8 °C
_ Min-Zeit 04:55 00:09 00:01 - 01:11 - - 08:23 03:35
Minimum _ 10,4 °C 72 % 1001,2 hPa - 0,0 km/h (0 Bft) - - 6,7 °C 9,0 °C
_ Max-Zeit 00:01 05:41 07:35 05:03 03:35 - - 05:53 00:01
Maximum _ 12,9 °C 87 % 1005,4 hPa 0,4 l/m² 10,0 km/h
NW (2 Bft)
- - 8,5 °C 12,9 °C
Durchschnitt _ 11,3 °C 80 % 1003,1 hPa #0,4 l/m² 2,0 km/h (1 Bft) NW - 7,8 °C 11,2 °C